SECU/CUE METAR and TAF weather

Enter ICAO airport designator
Station Type Date Time Source
SECU METAR 2019/11/21 03:00 UTC NOAA

SECU 210300Z AUTO VRB02KT ////NDV NCD 11/08 Q1028


Station Type Date Time Source
SECU Decoded METAR 2019/11/21 03:00 UTC NOAA

Cuenca / Mariscal Lamar, Ecuador (SECU) 02-53S 078-59W 2531M
Nov 20, 2019 - 10:00 PM EST / 2019.11.21 0300 UTC
Wind: Variable at 2 MPH (2 KT):0
Temperature: 51 F (11 C)
Dew Point: 46 F (8 C)
Relative Humidity: 81%
Pressure (altimeter): 30.36 in. Hg (1028 hPa)
ob: SECU 210300Z AUTO VRB02KT ////NDV NCD 11/08 Q1028
cycle: 3

Station Type Date Time Source
SECU TAF 2019/10/28 06:45 UTC NOAA

TAF SECU 280435Z 2806/2906 VRB03KT 9999 FEW010 BKN033
BECMG 2814/2815 05005KT BKN040 BKN100 TX20/2819Z TN12/2811Z

Example: see airport list